Terminal Aerodrome Forecast
Issued by NWS

Home | Current Version | Previous Version | Graphics & Text | Print | Product List | Glossary On
Versions: 1 2 3 4 5 6 7 8 9 10 11 12 13 14 15
000
FTUS43 KICT 230520
TAFRSL
TAF
KRSL 230520Z 2306/2406 16015KT P6SM SCT250
     FM231000 17014KT P6SM VCTS SCT060CB BKN250
     FM231300 17014KT P6SM SCT120
     FM231700 18020G30KT P6SM SKC=

USA.gov is the U.S. government's official web portal to all federal, state and local government web resources and services.